createdAt,value
2018-10-05T00:00:54.150Z,15.60
2018-10-05T00:03:17.983Z,15.76
2018-10-05T00:05:41.834Z,15.81
2018-10-05T00:08:05.692Z,15.40
2018-10-05T00:10:29.599Z,15.38
2018-10-05T00:12:53.549Z,15.58
2018-10-05T00:15:17.382Z,15.81
2018-10-05T00:17:41.281Z,15.74
2018-10-05T00:20:05.190Z,15.81
2018-10-05T00:22:29.084Z,15.64
2018-10-05T00:24:52.949Z,15.69
2018-10-05T00:27:16.818Z,15.55
2018-10-05T00:29:40.674Z,15.64
2018-10-05T00:32:04.531Z,15.13
2018-10-05T00:34:28.567Z,15.14
2018-10-05T00:36:52.468Z,15.70
2018-10-05T00:39:16.308Z,15.55
2018-10-05T00:41:40.223Z,15.66
2018-10-05T00:44:04.075Z,15.52
2018-10-05T00:46:27.916Z,15.52
2018-10-05T00:48:51.829Z,15.52
2018-10-05T00:51:15.668Z,15.13
2018-10-05T00:53:39.542Z,15.37
2018-10-05T00:56:03.476Z,15.21
2018-10-05T00:58:27.325Z,15.37
2018-10-05T01:00:51.152Z,15.34
2018-10-05T01:03:15.455Z,15.24
2018-10-05T01:05:39.318Z,15.17
2018-10-05T01:08:03.212Z,15.45
2018-10-05T01:10:27.141Z,15.37
2018-10-05T01:12:51.103Z,15.41
2018-10-05T01:15:15.026Z,15.42
2018-10-05T01:17:38.888Z,15.29
2018-10-05T01:20:02.765Z,15.07
2018-10-05T01:22:26.660Z,15.27
2018-10-05T01:24:50.700Z,15.07
2018-10-05T01:27:14.538Z,15.26
2018-10-05T01:29:38.444Z,15.27
2018-10-05T01:32:02.352Z,15.29
2018-10-05T01:34:26.334Z,15.20
2018-10-05T01:36:50.210Z,15.14
2018-10-05T01:39:14.124Z,15.12
2018-10-05T01:41:37.966Z,15.03
2018-10-05T01:44:01.855Z,14.90
2018-10-05T01:46:25.734Z,14.97
2018-10-05T01:48:49.673Z,14.51
2018-10-05T01:51:13.551Z,14.64
2018-10-05T01:53:37.400Z,14.86
2018-10-05T01:56:01.298Z,14.36
2018-10-05T01:58:25.161Z,14.42
2018-10-05T02:00:49.049Z,14.51
2018-10-05T02:03:12.889Z,14.20
2018-10-05T02:05:36.724Z,14.66
2018-10-05T02:08:00.626Z,14.45
2018-10-05T02:10:24.562Z,14.64
2018-10-05T02:12:48.447Z,14.48
2018-10-05T02:15:12.317Z,14.45
2018-10-05T02:17:36.213Z,14.63
2018-10-05T02:20:00.107Z,13.99
2018-10-05T02:22:23.971Z,14.51
2018-10-05T02:24:47.852Z,14.64
2018-10-05T02:27:11.733Z,14.49
2018-10-05T02:29:35.598Z,14.33
2018-10-05T02:31:59.712Z,14.22
2018-10-05T02:34:23.559Z,14.32
2018-10-05T02:36:47.408Z,14.33
2018-10-05T02:39:12.712Z,13.95
2018-10-05T02:41:36.626Z,14.02
2018-10-05T02:44:00.467Z,14.09
2018-10-05T02:46:24.362Z,13.91
2018-10-05T02:48:48.236Z,13.95
2018-10-05T02:51:12.124Z,14.25
2018-10-05T02:53:36.012Z,13.92
2018-10-05T02:55:59.875Z,13.91
2018-10-05T02:58:23.808Z,14.09
2018-10-05T03:00:59.032Z,14.07
2018-10-05T03:03:22.941Z,14.16
2018-10-05T03:05:46.769Z,14.04
2018-10-05T03:08:10.620Z,14.06
2018-10-05T03:10:34.520Z,14.08
2018-10-05T03:12:58.425Z,14.13
2018-10-05T03:15:22.287Z,14.08
2018-10-05T03:17:46.186Z,14.04
2018-10-05T03:20:10.209Z,13.97
2018-10-05T03:22:34.077Z,13.95
2018-10-05T03:24:57.926Z,14.01
2018-10-05T03:27:21.793Z,13.96
2018-10-05T03:29:45.651Z,13.77
2018-10-05T03:32:09.695Z,13.88
2018-10-05T03:34:33.549Z,13.84
2018-10-05T03:36:57.431Z,13.89
2018-10-05T03:39:21.306Z,13.87
2018-10-05T03:41:45.137Z,13.82
2018-10-05T03:44:09.019Z,13.68
2018-10-05T03:46:33.565Z,13.79
2018-10-05T03:48:57.446Z,13.68
2018-10-05T03:51:21.351Z,13.77
2018-10-05T03:53:45.176Z,13.58
2018-10-05T03:56:09.004Z,13.74
2018-10-05T03:58:32.923Z,13.54
2018-10-05T04:00:56.757Z,13.59
2018-10-05T04:03:20.618Z,13.66
2018-10-05T04:05:44.476Z,13.56
2018-10-05T04:08:08.399Z,13.58
2018-10-05T04:10:32.276Z,13.59
2018-10-05T04:12:56.128Z,13.54
2018-10-05T04:15:20.041Z,13.53
2018-10-05T04:17:43.945Z,13.40
2018-10-05T04:20:07.878Z,13.46
2018-10-05T04:22:31.803Z,13.53
2018-10-05T04:24:55.668Z,13.23
2018-10-05T04:27:19.602Z,13.42
2018-10-05T04:29:43.386Z,13.45
2018-10-05T04:32:07.326Z,13.29
2018-10-05T04:34:31.170Z,13.10
2018-10-05T04:36:55.018Z,13.22
2018-10-05T04:39:18.874Z,13.39
2018-10-05T04:41:42.723Z,13.09
2018-10-05T04:44:06.673Z,13.28
2018-10-05T04:46:30.539Z,13.27
2018-10-05T04:48:54.431Z,13.14
2018-10-05T04:51:18.310Z,13.09
2018-10-05T04:53:42.235Z,13.29
2018-10-05T04:56:06.076Z,12.92
2018-10-05T04:58:29.972Z,13.15
2018-10-05T05:00:53.870Z,13.13
2018-10-05T05:03:17.744Z,13.00
2018-10-05T05:05:41.551Z,13.26
2018-10-05T05:08:05.434Z,13.25
2018-10-05T05:10:29.334Z,13.09
2018-10-05T05:12:53.249Z,13.16
2018-10-05T05:15:17.087Z,13.18
2018-10-05T05:17:40.987Z,13.26
2018-10-05T05:20:04.935Z,13.06
2018-10-05T05:22:28.808Z,13.15
2018-10-05T05:24:52.684Z,13.13
2018-10-05T05:27:16.566Z,13.24
2018-10-05T05:29:40.433Z,13.21
2018-10-05T05:32:04.323Z,13.32
2018-10-05T05:34:28.401Z,13.21
2018-10-05T05:36:52.308Z,13.18
2018-10-05T05:39:16.155Z,13.08
2018-10-05T05:41:40.044Z,13.22
2018-10-05T05:44:03.904Z,12.76
2018-10-05T05:46:27.774Z,13.20
2018-10-05T05:48:51.653Z,13.22
2018-10-05T05:51:15.526Z,13.27
2018-10-05T05:53:39.479Z,13.17
2018-10-05T05:56:03.331Z,13.10
2018-10-05T05:58:27.214Z,13.33
2018-10-05T06:00:51.079Z,13.27
2018-10-05T06:03:15.028Z,13.10
2018-10-05T06:05:38.945Z,13.07
2018-10-05T06:08:02.759Z,13.15
2018-10-05T06:10:26.608Z,13.23
2018-10-05T06:12:50.495Z,13.41
2018-10-05T06:15:14.384Z,13.36
2018-10-05T06:17:38.223Z,13.49
2018-10-05T06:20:02.122Z,13.56
2018-10-05T06:22:26.161Z,13.56
2018-10-05T06:24:49.866Z,13.55
2018-10-05T06:27:13.802Z,13.61
2018-10-05T06:29:37.653Z,13.53
2018-10-05T06:32:01.520Z,13.61
2018-10-05T06:34:25.420Z,13.65
2018-10-05T06:36:49.287Z,13.27
2018-10-05T06:39:13.197Z,13.69
2018-10-05T06:44:02.572Z,13.74
2018-10-05T06:46:26.472Z,13.91
2018-10-05T06:48:50.367Z,13.94
2018-10-05T06:51:14.250Z,13.62
2018-10-05T06:53:38.165Z,13.73
2018-10-05T06:56:02.047Z,13.82
2018-10-05T06:58:25.969Z,13.88
2018-10-05T07:00:49.826Z,13.83
2018-10-05T07:03:13.686Z,13.92
2018-10-05T07:05:37.569Z,14.01
2018-10-05T07:08:01.515Z,14.02
2018-10-05T07:10:25.325Z,14.33
2018-10-05T07:12:49.217Z,14.18
2018-10-05T07:15:13.995Z,14.13
2018-10-05T07:17:37.936Z,14.28
2018-10-05T07:20:01.919Z,14.45
2018-10-05T07:22:25.991Z,14.56
2018-10-05T07:24:49.847Z,14.65
2018-10-05T07:27:13.708Z,14.39
2018-10-05T07:29:37.589Z,14.41
2018-10-05T07:32:01.488Z,14.43
2018-10-05T07:34:25.341Z,14.44
2018-10-05T07:36:49.208Z,14.38
2018-10-05T07:39:13.135Z,14.65
2018-10-05T07:41:37.050Z,14.69
2018-10-05T07:44:00.937Z,14.49
2018-10-05T07:46:24.793Z,14.84
2018-10-05T07:48:48.717Z,14.62
2018-10-05T07:51:12.615Z,14.75
2018-10-05T07:53:36.483Z,15.13
2018-10-05T07:56:00.415Z,15.20
2018-10-05T07:58:24.283Z,15.44
2018-10-05T08:00:48.117Z,15.54
2018-10-05T08:03:12.082Z,15.29
2018-10-05T08:05:35.978Z,15.61
2018-10-05T08:07:59.864Z,15.80
2018-10-05T08:10:23.871Z,15.85
2018-10-05T08:12:47.714Z,15.72
2018-10-05T08:15:11.580Z,15.66
2018-10-05T08:17:35.463Z,15.71
2018-10-05T08:19:59.390Z,15.69
2018-10-05T08:22:23.549Z,15.95
2018-10-05T08:24:47.604Z,15.84
2018-10-05T08:27:11.672Z,16.02
2018-10-05T08:29:35.525Z,16.18
2018-10-05T08:31:59.482Z,16.17
2018-10-05T08:34:23.309Z,16.26
2018-10-05T08:36:47.182Z,16.48
2018-10-05T08:39:12.265Z,16.34
2018-10-05T08:41:36.157Z,16.41
2018-10-05T08:44:00.044Z,16.51
2018-10-05T08:46:23.996Z,16.75
2018-10-05T08:48:47.946Z,16.54
2018-10-05T08:51:11.855Z,16.44
2018-10-05T08:53:35.707Z,16.60
2018-10-05T08:55:59.726Z,16.64
2018-10-05T08:58:23.913Z,16.79
2018-10-05T09:00:47.791Z,17.08
2018-10-05T09:03:11.678Z,16.96
2018-10-05T09:05:35.615Z,17.49
2018-10-05T09:07:59.502Z,17.34
2018-10-05T09:10:23.565Z,17.65
2018-10-05T09:12:47.426Z,17.43
2018-10-05T09:15:11.289Z,17.80
2018-10-05T09:17:35.205Z,17.95
2018-10-05T09:19:59.132Z,17.95
2018-10-05T09:22:23.084Z,18.22
2018-10-05T09:24:47.012Z,18.05
2018-10-05T09:27:10.867Z,18.01
2018-10-05T09:29:34.743Z,18.04
2018-10-05T09:31:58.694Z,18.19
2018-10-05T09:34:22.526Z,18.51
2018-10-05T09:36:46.502Z,18.60
2018-10-05T09:39:10.376Z,18.81
2018-10-05T09:41:34.299Z,18.90
2018-10-05T09:43:58.190Z,18.77
2018-10-05T09:46:22.068Z,19.08
2018-10-05T09:48:46.446Z,19.32
2018-10-05T09:51:10.417Z,19.62
2018-10-05T09:53:34.290Z,19.72
2018-10-05T09:55:58.628Z,20.22
2018-10-05T09:58:22.498Z,19.81
2018-10-05T10:01:49.170Z,19.37
2018-10-05T10:04:13.063Z,19.50
2018-10-05T10:06:36.910Z,19.73
2018-10-05T10:09:00.795Z,20.01
2018-10-05T10:11:24.849Z,20.50
2018-10-05T10:13:48.827Z,20.38
2018-10-05T10:16:12.724Z,20.85
2018-10-05T10:18:36.615Z,20.23
2018-10-05T10:21:00.512Z,20.66
2018-10-05T10:23:24.368Z,20.18
2018-10-05T10:25:48.272Z,20.48
2018-10-05T10:28:12.176Z,20.90
2018-10-05T10:30:36.018Z,21.76
2018-10-05T10:33:00.017Z,22.20
2018-10-05T10:35:23.893Z,21.97
2018-10-05T10:37:47.770Z,21.82
2018-10-05T10:40:11.683Z,22.43
2018-10-05T10:42:35.626Z,22.53
2018-10-05T10:44:59.556Z,22.94
2018-10-05T10:47:23.448Z,22.12
2018-10-05T10:49:47.362Z,21.77
2018-10-05T10:52:11.267Z,21.66
2018-10-05T10:54:35.163Z,22.43
2018-10-05T10:56:59.144Z,22.66
2018-10-05T10:59:22.987Z,23.13
2018-10-05T11:01:46.860Z,23.52
2018-10-05T11:04:10.771Z,23.59
2018-10-05T11:06:34.646Z,22.68
2018-10-05T11:08:58.615Z,23.33
2018-10-05T11:11:22.510Z,23.64
2018-10-05T11:13:46.372Z,24.01
2018-10-05T11:16:10.257Z,23.89
2018-10-05T11:18:34.150Z,24.14
2018-10-05T11:20:58.025Z,24.32
2018-10-05T11:23:21.947Z,24.49
2018-10-05T11:25:45.839Z,24.51
2018-10-05T11:28:09.720Z,25.28
2018-10-05T11:30:33.571Z,24.99
2018-10-05T11:32:57.492Z,24.79
2018-10-05T11:35:21.477Z,25.61
2018-10-05T11:37:45.418Z,25.62
2018-10-05T11:40:09.377Z,26.67
2018-10-05T11:42:33.314Z,32.21
2018-10-05T11:44:57.221Z,34.79
2018-10-05T11:47:21.116Z,34.58
2018-10-05T11:49:45.004Z,37.19
2018-10-05T11:52:08.933Z,37.63
2018-10-05T11:54:32.809Z,37.56
2018-10-05T11:56:56.758Z,36.81
2018-10-05T11:59:20.623Z,37.59
2018-10-05T12:01:44.559Z,38.90
2018-10-05T12:04:08.619Z,37.24
2018-10-05T12:06:32.511Z,39.96
2018-10-05T12:08:56.450Z,38.79
2018-10-05T12:11:20.354Z,40.89
2018-10-05T12:13:44.285Z,37.96
2018-10-05T12:16:08.150Z,36.59
2018-10-05T12:18:32.024Z,38.62
2018-10-05T12:20:55.992Z,40.64
2018-10-05T12:23:19.886Z,38.96
2018-10-05T12:25:43.777Z,39.95
2018-10-05T12:28:07.670Z,41.92
2018-10-05T12:30:31.607Z,43.02
2018-10-05T12:32:55.520Z,41.90
2018-10-05T12:35:19.366Z,42.91
2018-10-05T12:37:43.227Z,43.69
2018-10-05T12:40:07.161Z,44.78
2018-10-05T12:42:31.051Z,44.45
2018-10-05T12:44:55.074Z,44.90
2018-10-05T12:47:18.952Z,44.93
2018-10-05T12:49:42.819Z,43.46
2018-10-05T12:52:06.762Z,44.96
2018-10-05T12:54:30.661Z,44.81
2018-10-05T12:56:54.631Z,43.39
2018-10-05T12:59:18.512Z,45.09
2018-10-05T13:01:42.433Z,45.97
2018-10-05T13:04:06.336Z,44.75
2018-10-05T13:06:30.237Z,46.91
2018-10-05T13:08:54.108Z,46.72
2018-10-05T13:11:17.993Z,44.05
2018-10-05T13:13:41.999Z,43.70
2018-10-05T13:16:05.920Z,44.87
2018-10-05T13:18:29.804Z,45.34
2018-10-05T13:20:53.704Z,44.98
2018-10-05T13:23:17.619Z,44.54
2018-10-05T13:25:41.571Z,45.50
2018-10-05T13:28:05.514Z,46.52
2018-10-05T13:30:29.387Z,46.22
2018-10-05T13:32:53.281Z,43.52
2018-10-05T13:35:17.153Z,44.88
2018-10-05T13:37:41.094Z,45.25
2018-10-05T13:40:05.058Z,46.26
2018-10-05T13:42:29.023Z,47.46
2018-10-05T13:44:52.908Z,45.16
2018-10-05T13:47:16.790Z,44.52
2018-10-05T13:49:40.756Z,45.66
2018-10-05T13:52:04.650Z,45.29
2018-10-05T13:54:28.540Z,46.56
2018-10-05T13:56:52.397Z,45.13
2018-10-05T13:59:16.366Z,45.07
2018-10-05T14:01:40.234Z,43.61
2018-10-05T14:04:04.508Z,44.30
2018-10-05T14:06:28.434Z,44.68
2018-10-05T14:08:52.312Z,46.48
2018-10-05T14:11:16.299Z,46.83
2018-10-05T14:13:40.295Z,43.78
2018-10-05T14:16:04.239Z,42.97
2018-10-05T14:18:28.198Z,44.70
2018-10-05T14:20:52.099Z,44.41
2018-10-05T14:23:16.129Z,46.09
2018-10-05T14:25:40.029Z,42.56
2018-10-05T14:28:03.873Z,44.84
2018-10-05T14:30:27.827Z,46.49
2018-10-05T14:32:51.727Z,41.95
2018-10-05T14:35:15.645Z,43.30
2018-10-05T14:37:39.495Z,45.44
2018-10-05T14:40:03.483Z,44.47
2018-10-05T14:42:27.560Z,44.76
2018-10-05T14:44:51.424Z,45.36
2018-10-05T14:47:15.662Z,45.16
2018-10-05T14:49:39.690Z,43.69
2018-10-05T14:52:03.517Z,45.36
2018-10-05T14:54:27.377Z,44.26
2018-10-05T14:56:51.432Z,45.49
2018-10-05T14:59:15.376Z,45.32
2018-10-05T15:01:39.241Z,45.70
2018-10-05T15:04:03.210Z,43.70
2018-10-05T15:06:27.136Z,43.20
2018-10-05T15:08:51.144Z,44.18
2018-10-05T15:19:58.425Z,43.42
2018-10-05T15:22:22.424Z,44.11
2018-10-05T15:24:46.362Z,41.71
2018-10-05T15:27:10.786Z,41.14
2018-10-05T15:29:34.768Z,43.05
2018-10-05T15:31:58.635Z,42.59
2018-10-05T15:34:22.577Z,42.61
2018-10-05T15:36:46.471Z,42.38
2018-10-05T15:39:10.563Z,41.76
2018-10-05T15:41:34.428Z,41.05
2018-10-05T15:43:58.334Z,41.32
2018-10-05T15:46:37.466Z,40.23
2018-10-05T15:49:01.324Z,37.07
2018-10-05T15:51:25.204Z,36.34
2018-10-05T15:53:49.084Z,35.92
2018-10-05T15:56:12.980Z,34.59
2018-10-05T15:58:36.870Z,34.13
2018-10-05T16:01:00.762Z,32.67
2018-10-05T16:03:24.766Z,31.38
2018-10-05T16:05:48.610Z,30.56
2018-10-05T16:08:12.549Z,29.98
2018-10-05T16:10:36.466Z,29.78
2018-10-05T16:13:00.339Z,29.50
2018-10-05T16:15:24.361Z,29.26
2018-10-05T16:17:48.370Z,28.97
2018-10-05T16:20:12.273Z,28.68
2018-10-05T16:22:36.221Z,28.33
2018-10-05T16:25:00.108Z,28.27
2018-10-05T16:27:24.055Z,28.23
2018-10-05T16:29:47.956Z,27.90
2018-10-05T16:32:12.357Z,27.77
2018-10-05T16:34:36.260Z,27.45
2018-10-05T16:37:00.132Z,27.54
2018-10-05T16:39:24.076Z,27.22
2018-10-05T16:41:48.013Z,27.04
2018-10-05T16:44:11.939Z,26.81
2018-10-05T17:04:10.562Z,25.60
2018-10-05T17:06:39.996Z,25.41
2018-10-05T17:09:10.648Z,25.22
2018-10-05T17:11:34.837Z,25.20
2018-10-05T17:13:58.926Z,25.04
2018-10-05T17:16:22.870Z,25.12
2018-10-05T17:18:47.014Z,24.91
2018-10-05T17:21:10.939Z,24.83
2018-10-05T17:23:34.906Z,24.83
2018-10-05T17:25:58.986Z,24.69
2018-10-05T17:28:23.772Z,24.51
2018-10-05T17:30:47.674Z,24.57
2018-10-05T17:33:11.611Z,24.31
2018-10-05T17:35:35.597Z,24.42
2018-10-05T17:37:59.508Z,24.23
2018-10-05T17:40:23.424Z,24.07
2018-10-05T17:42:47.305Z,23.83
2018-10-05T17:45:11.261Z,24.00
2018-10-05T17:47:35.245Z,23.95
2018-10-05T17:49:59.185Z,23.84
2018-10-05T17:52:23.062Z,23.82
2018-10-05T17:54:47.012Z,23.58
2018-10-05T17:57:11.637Z,23.56
2018-10-05T17:59:35.678Z,23.60
2018-10-05T18:01:59.690Z,23.63
2018-10-05T18:04:23.525Z,23.42
2018-10-05T18:06:47.463Z,23.23
2018-10-05T18:09:11.337Z,23.15
2018-10-05T18:11:35.267Z,23.16
2018-10-05T18:13:59.124Z,23.07
2018-10-05T18:16:23.009Z,23.04
2018-10-05T18:18:47.359Z,23.00
2018-10-05T18:21:11.287Z,22.84
2018-10-05T18:23:35.224Z,22.88
2018-10-05T18:25:59.167Z,22.62
2018-10-05T18:28:23.250Z,22.56
2018-10-05T18:30:47.201Z,22.62
2018-10-05T18:33:11.148Z,22.45
2018-10-05T18:35:35.287Z,22.23
2018-10-05T18:37:59.221Z,22.29
2018-10-05T18:40:23.114Z,22.47
2018-10-05T18:42:47.045Z,22.36
2018-10-05T18:45:10.978Z,22.24
2018-10-05T18:47:34.915Z,22.23
2018-10-05T18:49:59.105Z,22.22
2018-10-05T18:52:23.021Z,22.21
2018-10-05T18:54:46.922Z,22.08
2018-10-05T18:57:14.956Z,22.02
2018-10-05T18:59:38.960Z,21.96
2018-10-05T19:02:02.810Z,21.96
2018-10-05T19:04:26.942Z,21.87
2018-10-05T19:06:51.035Z,21.71
2018-10-05T19:09:14.877Z,21.65
2018-10-05T19:11:39.164Z,21.64
2018-10-05T19:14:03.059Z,21.67
2018-10-05T19:16:27.303Z,21.66
2018-10-05T19:18:51.261Z,21.40
2018-10-05T19:21:15.192Z,21.40
2018-10-05T19:23:39.160Z,21.37
2018-10-05T19:26:03.076Z,21.28
2018-10-05T19:28:26.940Z,21.37
2018-10-05T19:30:50.915Z,21.30
2018-10-05T19:33:14.905Z,21.35
2018-10-05T19:35:38.938Z,21.27
2018-10-05T19:38:03.424Z,21.06
2018-10-05T19:40:27.328Z,20.96
2018-10-05T19:42:51.361Z,20.81
2018-10-05T19:45:15.229Z,20.97
2018-10-05T19:47:39.168Z,20.82
2018-10-05T19:50:03.142Z,20.82
2018-10-05T19:52:27.141Z,20.65
2018-10-05T19:54:51.084Z,20.71
2018-10-05T19:57:14.950Z,20.62
2018-10-05T19:59:38.899Z,20.60
2018-10-05T20:02:02.859Z,20.56
2018-10-05T20:04:26.739Z,20.58
2018-10-05T20:06:50.692Z,20.33
2018-10-05T20:09:14.585Z,20.18
2018-10-05T20:11:38.546Z,20.31
2018-10-05T20:14:02.510Z,20.39
2018-10-05T20:16:26.460Z,20.08
2018-10-05T20:18:50.392Z,19.99
2018-10-05T20:21:14.327Z,20.04
2018-10-05T20:23:38.432Z,20.04
2018-10-05T20:26:02.387Z,20.11
2018-10-05T20:28:26.270Z,19.93
2018-10-05T20:30:50.215Z,19.93
2018-10-05T20:33:14.122Z,20.03
2018-10-05T20:35:38.158Z,20.00
2018-10-05T20:38:01.981Z,19.95
2018-10-05T20:40:25.944Z,19.89
2018-10-05T20:42:49.834Z,19.03
2018-10-05T20:45:13.720Z,19.49
2018-10-05T20:47:37.639Z,19.34
2018-10-05T20:50:01.581Z,19.14
2018-10-05T20:52:25.496Z,18.99
2018-10-05T20:54:49.438Z,18.92
2018-10-05T20:57:13.433Z,18.94
2018-10-05T20:59:37.458Z,18.85
2018-10-05T21:02:01.356Z,18.75
2018-10-05T21:04:25.301Z,18.47
2018-10-05T21:06:49.291Z,18.53
2018-10-05T21:09:13.212Z,18.57
2018-10-05T21:11:37.139Z,18.72
2018-10-05T21:14:01.076Z,18.25
2018-10-05T21:16:25.103Z,18.37
2018-10-05T21:18:49.058Z,18.25
2018-10-05T21:21:13.004Z,18.50
2018-10-05T21:23:36.936Z,18.35
2018-10-05T21:26:00.824Z,18.30
2018-10-05T21:28:24.911Z,18.39
2018-10-05T21:30:48.831Z,18.08
2018-10-05T21:33:12.962Z,18.11
2018-10-05T21:35:36.835Z,18.02
2018-10-05T21:38:00.740Z,18.13
2018-10-05T21:40:24.683Z,17.83
2018-10-05T21:42:48.548Z,17.93
2018-10-05T21:45:12.453Z,17.78
2018-10-05T21:47:36.400Z,17.64
2018-10-05T21:50:00.347Z,17.86
2018-10-05T21:52:24.447Z,17.46
2018-10-05T21:54:48.312Z,17.49
2018-10-05T21:57:12.217Z,17.62
2018-10-05T21:59:36.137Z,17.18
2018-10-05T22:02:00.026Z,17.30
2018-10-05T22:04:24.026Z,17.36
2018-10-05T22:06:47.899Z,17.39
2018-10-05T22:09:12.282Z,17.25
2018-10-05T22:11:36.195Z,17.12
2018-10-05T22:14:00.084Z,17.12
2018-10-05T22:16:24.025Z,17.04
2018-10-05T22:18:47.943Z,16.89
2018-10-05T22:21:11.876Z,16.83
2018-10-05T22:23:35.802Z,16.92
2018-10-05T22:25:59.723Z,16.90
2018-10-05T22:28:23.634Z,16.72
2018-10-05T22:30:47.587Z,16.75
2018-10-05T22:33:11.532Z,16.87
2018-10-05T22:35:35.756Z,16.51
2018-10-05T22:37:59.703Z,16.67
2018-10-05T22:40:23.552Z,16.90
2018-10-05T22:42:47.513Z,16.73
2018-10-05T22:45:11.451Z,16.58
2018-10-05T22:47:35.380Z,16.54
2018-10-05T22:49:59.337Z,16.77
2018-10-05T22:52:23.271Z,16.50
2018-10-05T22:54:47.173Z,16.42
2018-10-05T22:57:11.065Z,16.45
2018-10-05T22:59:35.049Z,16.39
2018-10-05T23:01:58.920Z,16.34
2018-10-05T23:04:22.798Z,16.36
2018-10-05T23:06:46.666Z,15.93
2018-10-05T23:09:10.897Z,16.23
2018-10-05T23:11:34.878Z,16.41
2018-10-05T23:13:58.731Z,16.08
2018-10-05T23:16:22.602Z,16.16
2018-10-05T23:18:46.478Z,16.27
2018-10-05T23:21:10.398Z,16.24
2018-10-05T23:23:34.307Z,16.19
2018-10-05T23:25:58.221Z,16.13
2018-10-05T23:28:22.141Z,16.04
2018-10-05T23:30:46.039Z,15.97
2018-10-05T23:33:09.876Z,16.00
2018-10-05T23:35:33.764Z,15.93
2018-10-05T23:37:57.665Z,16.00
2018-10-05T23:40:21.575Z,16.02
2018-10-05T23:42:45.430Z,15.82
2018-10-05T23:45:09.311Z,15.73
2018-10-05T23:47:33.327Z,15.49
2018-10-05T23:49:57.181Z,15.49
2018-10-05T23:52:51.140Z,15.63
2018-10-05T23:55:15.012Z,15.07
2018-10-05T23:57:39.484Z,14.86
